sensor_id;sensor_type;location;lat;lon;timestamp;pressure;altitude;pressure_sealevel;temperature;humidity
76321;BME280;65132;52.088;5.402;2023-02-11T00:01:12;103507.25;;;6.78;89.30
76321;BME280;65132;52.088;5.402;2023-02-11T00:03:41;103496.59;;;6.75;88.95
76321;BME280;65132;52.088;5.402;2023-02-11T00:06:09;103508.06;;;6.80;88.48
76321;BME280;65132;52.088;5.402;2023-02-11T00:08:37;103501.66;;;6.84;88.69
76321;BME280;65132;52.088;5.402;2023-02-11T00:11:04;103496.22;;;6.86;88.57
76321;BME280;65132;52.088;5.402;2023-02-11T00:13:30;103484.63;;;6.84;88.85
76321;BME280;65132;52.088;5.402;2023-02-11T00:15:57;103489.22;;;6.80;88.74
76321;BME280;65132;52.088;5.402;2023-02-11T00:18:24;103496.41;;;6.80;88.54
76321;BME280;65132;52.088;5.402;2023-02-11T00:20:50;103493.66;;;6.81;88.64
76321;BME280;65132;52.088;5.402;2023-02-11T00:23:16;103493.03;;;6.75;88.78
76321;BME280;65132;52.088;5.402;2023-02-11T00:25:44;103493.59;;;6.83;89.23
76321;BME280;65132;52.088;5.402;2023-02-11T00:28:11;103495.09;;;6.91;88.58
76321;BME280;65132;52.088;5.402;2023-02-11T00:30:38;103483.66;;;6.85;88.70
76321;BME280;65132;52.088;5.402;2023-02-11T00:33:04;103492.81;;;6.81;88.16
76321;BME280;65132;52.088;5.402;2023-02-11T00:35:31;103493.72;;;6.80;88.70
76321;BME280;65132;52.088;5.402;2023-02-11T00:37:57;103486.53;;;6.80;88.70
76321;BME280;65132;52.088;5.402;2023-02-11T00:40:24;103484.03;;;6.76;89.29
76321;BME280;65132;52.088;5.402;2023-02-11T00:42:50;103498.28;;;6.78;88.90
76321;BME280;65132;52.088;5.402;2023-02-11T00:45:17;103495.53;;;6.79;88.98
76321;BME280;65132;52.088;5.402;2023-02-11T00:47:43;103495.53;;;6.79;89.27
76321;BME280;65132;52.088;5.402;2023-02-11T00:50:10;103508.56;;;6.67;89.12
76321;BME280;65132;52.088;5.402;2023-02-11T00:52:36;103509.22;;;6.73;88.75
76321;BME280;65132;52.088;5.402;2023-02-11T00:55:02;103513.78;;;6.71;88.87
76321;BME280;65132;52.088;5.402;2023-02-11T00:57:29;103511.19;;;6.68;89.41
76321;BME280;65132;52.088;5.402;2023-02-11T00:59:55;103497.47;;;6.76;89.12
76321;BME280;65132;52.088;5.402;2023-02-11T01:02:22;103490.44;;;6.72;89.46
76321;BME280;65132;52.088;5.402;2023-02-11T01:04:48;103475.13;;;6.74;88.55
76321;BME280;65132;52.088;5.402;2023-02-11T01:07:17;103480.56;;;6.72;89.30
76321;BME280;65132;52.088;5.402;2023-02-11T01:09:44;103474.88;;;6.80;89.13
76321;BME280;65132;52.088;5.402;2023-02-11T01:12:10;103472.31;;;6.77;88.70
76321;BME280;65132;52.088;5.402;2023-02-11T01:14:36;103473.28;;;6.74;89.08
76321;BME280;65132;52.088;5.402;2023-02-11T01:17:04;103463.03;;;6.61;89.51
76321;BME280;65132;52.088;5.402;2023-02-11T01:19:31;103476.22;;;6.68;89.45
76321;BME280;65132;52.088;5.402;2023-02-11T01:21:57;103460.13;;;6.67;89.23
76321;BME280;65132;52.088;5.402;2023-02-11T01:24:25;103466.41;;;6.67;89.82
76321;BME280;65132;52.088;5.402;2023-02-11T01:26:51;103443.88;;;6.70;89.46
76321;BME280;65132;52.088;5.402;2023-02-11T01:29:18;103440.22;;;6.71;89.43
76321;BME280;65132;52.088;5.402;2023-02-11T01:31:44;103436.75;;;6.69;89.13
76321;BME280;65132;52.088;5.402;2023-02-11T01:34:11;103452.97;;;6.66;89.25
76321;BME280;65132;52.088;5.402;2023-02-11T01:36:37;103454.91;;;6.62;89.60
76321;BME280;65132;52.088;5.402;2023-02-11T01:39:04;103462.53;;;6.50;89.50
76321;BME280;65132;52.088;5.402;2023-02-11T01:41:30;103479.66;;;6.47;89.95
76321;BME280;65132;52.088;5.402;2023-02-11T01:43:57;103483.19;;;6.49;89.89
76321;BME280;65132;52.088;5.402;2023-02-11T01:46:29;103476.81;;;6.52;90.24
76321;BME280;65132;52.088;5.402;2023-02-11T01:49:16;103492.84;;;6.55;89.86
76321;BME280;65132;52.088;5.402;2023-02-11T01:54:19;103478.50;;;6.54;89.57
76321;BME280;65132;52.088;5.402;2023-02-11T01:56:48;103478.38;;;6.59;89.49
76321;BME280;65132;52.088;5.402;2023-02-11T01:59:22;103478.38;;;6.59;89.73
76321;BME280;65132;52.088;5.402;2023-02-11T02:01:55;103476.81;;;6.52;89.88
76321;BME280;65132;52.088;5.402;2023-02-11T02:04:26;103478.22;;;6.37;89.69
76321;BME280;65132;52.088;5.402;2023-02-11T02:07:08;103492.44;;;6.41;89.85
76321;BME280;65132;52.088;5.402;2023-02-11T02:09:40;103487.25;;;6.36;89.96
76321;BME280;65132;52.088;5.402;2023-02-11T02:12:08;103481.09;;;6.33;90.29
76321;BME280;65132;52.088;5.402;2023-02-11T02:14:41;103481.28;;;6.27;90.79
76321;BME280;65132;52.088;5.402;2023-02-11T02:17:28;103481.50;;;6.21;91.39
76321;BME280;65132;52.088;5.402;2023-02-11T02:20:39;103482.28;;;6.24;91.07
76321;BME280;65132;52.088;5.402;2023-02-11T02:34:41;103472.53;;;6.20;90.84
76321;BME280;65132;52.088;5.402;2023-02-11T02:37:16;103479.44;;;6.02;91.75
76321;BME280;65132;52.088;5.402;2023-02-11T02:39:48;103474.84;;;6.04;91.99
76321;BME280;65132;52.088;5.402;2023-02-11T02:42:15;103462.59;;;5.97;91.98
76321;BME280;65132;52.088;5.402;2023-02-11T02:44:48;103459.63;;;6.05;91.70
76321;BME280;65132;52.088;5.402;2023-02-11T02:47:15;103447.31;;;5.98;91.75
76321;BME280;65132;52.088;5.402;2023-02-11T02:49:41;103449.22;;;5.94;92.03
76321;BME280;65132;52.088;5.402;2023-02-11T02:52:17;103458.19;;;5.95;92.57
76321;BME280;65132;52.088;5.402;2023-02-11T02:57:26;103464.84;;;5.83;93.53
76321;BME280;65132;52.088;5.402;2023-02-11T03:00:13;103472.50;;;5.95;92.87
76321;BME280;65132;52.088;5.402;2023-02-11T03:08:18;103456.16;;;6.01;92.62
76321;BME280;65132;52.088;5.402;2023-02-11T03:10:50;103450.94;;;5.97;92.83
76321;BME280;65132;52.088;5.402;2023-02-11T03:13:19;103451.66;;;6.02;92.82
76321;BME280;65132;52.088;5.402;2023-02-11T03:15:51;103447.06;;;6.05;92.84
76321;BME280;65132;52.088;5.402;2023-02-11T03:18:22;103446.25;;;6.03;92.96
76321;BME280;65132;52.088;5.402;2023-02-11T03:20:51;103441.84;;;6.01;92.54
76321;BME280;65132;52.088;5.402;2023-02-11T03:23:29;103429.16;;;6.04;92.72
76321;BME280;65132;52.088;5.402;2023-02-11T03:26:07;103431.13;;;5.99;93.43
76321;BME280;65132;52.088;5.402;2023-02-11T03:28:53;103435.50;;;6.03;93.11
76321;BME280;65132;52.088;5.402;2023-02-11T03:31:27;103436.50;;;5.99;93.46
76321;BME280;65132;52.088;5.402;2023-02-11T03:34:07;103431.13;;;5.99;93.36
76321;BME280;65132;52.088;5.402;2023-02-11T03:36:39;103431.91;;;6.03;93.59
76321;BME280;65132;52.088;5.402;2023-02-11T03:39:08;103424.19;;;5.92;93.33
76321;BME280;65132;52.088;5.402;2023-02-11T03:41:36;103429.63;;;5.91;93.84
76321;BME280;65132;52.088;5.402;2023-02-11T03:44:06;103429.38;;;5.98;93.56
76321;BME280;65132;52.088;5.402;2023-02-11T03:46:35;103433.75;;;6.01;93.52
76321;BME280;65132;52.088;5.402;2023-02-11T03:49:07;103400.06;;;5.91;93.90
76321;BME280;65132;52.088;5.402;2023-02-11T03:51:35;103411.66;;;5.93;93.87
76321;BME280;65132;52.088;5.402;2023-02-11T03:54:05;103417.13;;;5.90;93.51
76321;BME280;65132;52.088;5.402;2023-02-11T03:56:39;103409.31;;;5.84;94.20
76321;BME280;65132;52.088;5.402;2023-02-11T03:59:07;103412.72;;;5.87;93.98
76321;BME280;65132;52.088;5.402;2023-02-11T04:01:33;103414.69;;;5.82;93.98
76321;BME280;65132;52.088;5.402;2023-02-11T04:04:01;103419.06;;;5.86;94.05
76321;BME280;65132;52.088;5.402;2023-02-11T04:06:27;103412.00;;;5.82;94.04
76321;BME280;65132;52.088;5.402;2023-02-11T04:08:54;103434.22;;;5.89;94.23
76321;BME280;65132;52.088;5.402;2023-02-11T04:11:20;103436.91;;;5.87;94.25
76321;BME280;65132;52.088;5.402;2023-02-11T04:13:48;103421.22;;;5.74;94.51
76321;BME280;65132;52.088;5.402;2023-02-11T04:16:14;103440.38;;;5.91;94.34
76321;BME280;65132;52.088;5.402;2023-02-11T04:18:40;103437.91;;;5.85;94.43
76321;BME280;65132;52.088;5.402;2023-02-11T04:21:07;103441.59;;;5.81;95.00
76321;BME280;65132;52.088;5.402;2023-02-11T04:23:33;103434.56;;;5.77;94.62
76321;BME280;65132;52.088;5.402;2023-02-11T04:26:00;103439.00;;;5.78;94.26
76321;BME280;65132;52.088;5.402;2023-02-11T04:28:26;103439.75;;;5.83;94.62
76321;BME280;65132;52.088;5.402;2023-02-11T04:30:53;103442.44;;;5.83;94.46
76321;BME280;65132;52.088;5.402;2023-02-11T04:33:20;103443.41;;;5.80;94.65
76321;BME280;65132;52.088;5.402;2023-02-11T04:35:47;103450.53;;;5.81;94.73
76321;BME280;65132;52.088;5.402;2023-02-11T04:38:15;103449.63;;;5.82;95.09
76321;BME280;65132;52.088;5.402;2023-02-11T04:40:41;103444.97;;;5.87;94.19
76321;BME280;65132;52.088;5.402;2023-02-11T04:43:08;103444.22;;;5.84;94.67
76321;BME280;65132;52.088;5.402;2023-02-11T04:45:34;103451.25;;;5.88;94.74
76321;BME280;65132;52.088;5.402;2023-02-11T04:48:02;103450.28;;;5.90;94.67
76321;BME280;65132;52.088;5.402;2023-02-11T04:50:28;103443.28;;;5.85;94.82
76321;BME280;65132;52.088;5.402;2023-02-11T04:52:55;103449.38;;;5.90;95.47
76321;BME280;65132;52.088;5.402;2023-02-11T04:55:22;103448.44;;;5.91;94.64
76321;BME280;65132;52.088;5.402;2023-02-11T04:57:49;103449.34;;;5.91;95.28
76321;BME280;65132;52.088;5.402;2023-02-11T05:00:15;103442.44;;;5.83;94.95
76321;BME280;65132;52.088;5.402;2023-02-11T05:02:42;103445.09;;;5.84;94.64
76321;BME280;65132;52.088;5.402;2023-02-11T05:05:08;103448.25;;;5.97;94.40
76321;BME280;65132;52.088;5.402;2023-02-11T05:07:35;103440.44;;;5.89;94.83
76321;BME280;65132;52.088;5.402;2023-02-11T05:10:02;103451.19;;;5.89;94.35
76321;BME280;65132;52.088;5.402;2023-02-11T05:12:28;103435.28;;;5.83;94.91
76321;BME280;65132;52.088;5.402;2023-02-11T05:14:54;103452.13;;;5.88;94.81
76321;BME280;65132;52.088;5.402;2023-02-11T05:17:21;103456.44;;;5.94;95.11
76321;BME280;65132;52.088;5.402;2023-02-11T05:19:47;103452.13;;;5.88;95.05
76321;BME280;65132;52.088;5.402;2023-02-11T05:22:14;103453.69;;;5.95;95.04
76321;BME280;65132;52.088;5.402;2023-02-11T05:24:40;103440.31;;;5.94;95.02
76321;BME280;65132;52.088;5.402;2023-02-11T05:27:07;103452.13;;;5.88;95.48
76321;BME280;65132;52.088;5.402;2023-02-11T05:29:33;103449.44;;;5.88;95.44
76321;BME280;65132;52.088;5.402;2023-02-11T05:32:00;103456.50;;;5.91;95.24
76321;BME280;65132;52.088;5.402;2023-02-11T05:34:26;103450.22;;;5.92;95.94
76321;BME280;65132;52.088;5.402;2023-02-11T05:36:52;103444.19;;;5.85;95.54
76321;BME280;65132;52.088;5.402;2023-02-11T05:39:19;103448.97;;;6.02;95.15
76321;BME280;65132;52.088;5.402;2023-02-11T05:41:45;103446.34;;;6.00;95.00
76321;BME280;65132;52.088;5.402;2023-02-11T05:44:13;103449.16;;;5.97;95.26
76321;BME280;65132;52.088;5.402;2023-02-11T05:46:39;103441.16;;;5.94;95.55
76321;BME280;65132;52.088;5.402;2023-02-11T05:49:06;103437.69;;;5.91;95.75
76321;BME280;65132;52.088;5.402;2023-02-11T05:51:33;103437.34;;;6.01;95.53
76321;BME280;65132;52.088;5.402;2023-02-11T05:53:59;103435.31;;;6.08;95.40
76321;BME280;65132;52.088;5.402;2023-02-11T05:56:26;103439.06;;;6.04;95.45
76321;BME280;65132;52.088;5.402;2023-02-11T05:58:52;103451.56;;;6.05;95.88
76321;BME280;65132;52.088;5.402;2023-02-11T06:01:19;103430.34;;;5.96;95.94
76321;BME280;65132;52.088;5.402;2023-02-11T06:03:45;103446.19;;;6.05;96.04
76321;BME280;65132;52.088;5.402;2023-02-11T06:06:12;103443.38;;;6.08;96.01
76321;BME280;65132;52.088;5.402;2023-02-11T06:08:38;103442.13;;;6.20;95.90
76321;BME280;65132;52.088;5.402;2023-02-11T06:11:05;103443.97;;;6.18;95.78
76321;BME280;65132;52.088;5.402;2023-02-11T06:13:31;103459.31;;;6.14;96.17
76321;BME280;65132;52.088;5.402;2023-02-11T06:15:59;103453.94;;;6.14;96.12
76321;BME280;65132;52.088;5.402;2023-02-11T06:18:26;103453.00;;;6.15;96.11
76321;BME280;65132;52.088;5.402;2023-02-11T06:20:54;103457.31;;;6.21;96.01
76321;BME280;65132;52.088;5.402;2023-02-11T06:23:20;103450.19;;;6.20;96.13
76321;BME280;65132;52.088;5.402;2023-02-11T06:25:47;103449.13;;;6.24;95.97
76321;BME280;65132;52.088;5.402;2023-02-11T06:28:14;103460.00;;;6.21;95.84
76321;BME280;65132;52.088;5.402;2023-02-11T06:30:41;103464.34;;;6.25;96.22
76321;BME280;65132;52.088;5.402;2023-02-11T06:33:08;103450.19;;;6.18;96.15
76321;BME280;65132;52.088;5.402;2023-02-11T06:35:37;103460.81;;;6.23;96.54
76321;BME280;65132;52.088;5.402;2023-02-11T06:38:04;103451.97;;;6.19;96.24
76321;BME280;65132;52.088;5.402;2023-02-11T06:40:30;103455.44;;;6.23;96.28
76321;BME280;65132;52.088;5.402;2023-02-11T06:42:57;103445.59;;;6.22;96.13
76321;BME280;65132;52.088;5.402;2023-02-11T06:45:23;103458.13;;;6.23;95.98
76321;BME280;65132;52.088;5.402;2023-02-11T06:47:50;103456.16;;;6.28;96.24
76321;BME280;65132;52.088;5.402;2023-02-11T06:50:17;103456.09;;;6.29;96.19
76321;BME280;65132;52.088;5.402;2023-02-11T06:52:44;103448.09;;;6.28;96.00
76321;BME280;65132;52.088;5.402;2023-02-11T06:55:10;103447.03;;;6.32;96.15
76321;BME280;65132;52.088;5.402;2023-02-11T06:57:37;103458.63;;;6.34;95.80
76321;BME280;65132;52.088;5.402;2023-02-11T07:00:04;103460.47;;;6.32;95.88
76321;BME280;65132;52.088;5.402;2023-02-11T07:02:31;103444.63;;;6.24;96.13
76321;BME280;65132;52.088;5.402;2023-02-11T07:04:58;103453.31;;;6.32;95.98
76321;BME280;65132;52.088;5.402;2023-02-11T07:07:26;103459.69;;;6.30;95.77
76321;BME280;65132;52.088;5.402;2023-02-11T07:09:52;103468.06;;;6.21;96.18
76321;BME280;65132;52.088;5.402;2023-02-11T07:12:19;103467.03;;;6.25;96.46
76321;BME280;65132;52.088;5.402;2023-02-11T07:14:45;103472.34;;;6.26;96.04
76321;BME280;65132;52.088;5.402;2023-02-11T07:17:12;103473.38;;;6.22;96.37
76321;BME280;65132;52.088;5.402;2023-02-11T07:19:38;103474.94;;;6.29;96.77
76321;BME280;65132;52.088;5.402;2023-02-11T07:22:05;103471.22;;;6.32;96.21
76321;BME280;65132;52.088;5.402;2023-02-11T07:24:31;103479.31;;;6.32;95.49
76321;BME280;65132;52.088;5.402;2023-02-11T07:26:58;103478.56;;;6.28;96.48
76321;BME280;65132;52.088;5.402;2023-02-11T07:29:24;103485.22;;;6.43;95.44
76321;BME280;65132;52.088;5.402;2023-02-11T07:31:50;103478.44;;;6.31;95.99
76321;BME280;65132;52.088;5.402;2023-02-11T07:34:17;103477.78;;;6.25;96.20
76321;BME280;65132;52.088;5.402;2023-02-11T07:36:44;103488.19;;;6.34;96.54
76321;BME280;65132;52.088;5.402;2023-02-11T07:39:10;103500.63;;;6.38;96.63
76321;BME280;65132;52.088;5.402;2023-02-11T07:41:37;103497.94;;;6.38;96.03
76321;BME280;65132;52.088;5.402;2023-02-11T07:44:06;103500.69;;;6.36;95.82
76321;BME280;65132;52.088;5.402;2023-02-11T07:46:33;103500.69;;;6.36;96.48
76321;BME280;65132;52.088;5.402;2023-02-11T07:49:00;103497.81;;;6.41;95.78
76321;BME280;65132;52.088;5.402;2023-02-11T07:51:30;103503.25;;;6.39;95.90
76321;BME280;65132;52.088;5.402;2023-02-11T07:53:58;103508.28;;;6.50;95.93
76321;BME280;65132;52.088;5.402;2023-02-11T07:56:29;103498.44;;;6.49;95.40
76321;BME280;65132;52.088;5.402;2023-02-11T07:58:59;103504.75;;;6.48;95.85
76321;BME280;65132;52.088;5.402;2023-02-11T08:01:26;103483.34;;;6.45;95.18
76321;BME280;65132;52.088;5.402;2023-02-11T08:03:58;103505.28;;;6.59;95.08
76321;BME280;65132;52.088;5.402;2023-02-11T08:06:29;103500.75;;;6.59;95.16
76321;BME280;65132;52.088;5.402;2023-02-11T08:08:56;103509.81;;;6.57;95.14
76321;BME280;65132;52.088;5.402;2023-02-11T08:11:25;103506.13;;;6.59;95.21
76321;BME280;65132;52.088;5.402;2023-02-11T08:13:53;103510.44;;;6.65;94.90
76321;BME280;65132;52.088;5.402;2023-02-11T08:16:26;103508.44;;;6.70;94.94
76321;BME280;65132;52.088;5.402;2023-02-11T08:18:56;103513.19;;;6.63;95.21
76321;BME280;65132;52.088;5.402;2023-02-11T08:21:23;103510.44;;;6.65;94.90
76321;BME280;65132;52.088;5.402;2023-02-11T08:23:50;103513.06;;;6.66;95.18
76321;BME280;65132;52.088;5.402;2023-02-11T08:26:20;103508.28;;;6.74;94.56
76321;BME280;65132;52.088;5.402;2023-02-11T08:28:48;103510.06;;;6.75;94.46
76321;BME280;65132;52.088;5.402;2023-02-11T08:31:26;103518.25;;;6.72;94.82
76321;BME280;65132;52.088;5.402;2023-02-11T08:33:54;103511.19;;;6.68;94.93
76321;BME280;65132;52.088;5.402;2023-02-11T08:36:23;103515.38;;;6.77;94.93
76321;BME280;65132;52.088;5.402;2023-02-11T08:38:50;103515.44;;;6.75;95.41
76321;BME280;65132;52.088;5.402;2023-02-11T08:41:17;103519.94;;;6.75;95.02
76321;BME280;65132;52.088;5.402;2023-02-11T08:43:44;103529.47;;;6.83;94.73
76321;BME280;65132;52.088;5.402;2023-02-11T08:46:13;103526.91;;;6.80;94.83
76321;BME280;65132;52.088;5.402;2023-02-11T08:48:40;103528.81;;;6.77;95.17
76321;BME280;65132;52.088;5.402;2023-02-11T08:51:08;103536.34;;;6.92;94.85
76321;BME280;65132;52.088;5.402;2023-02-11T08:53:36;103531.97;;;6.89;95.05
76321;BME280;65132;52.088;5.402;2023-02-11T08:56:03;103522.72;;;6.96;94.31
76321;BME280;65132;52.088;5.402;2023-02-11T08:58:30;103532.63;;;6.96;94.47
76321;BME280;65132;52.088;5.402;2023-02-11T09:00:56;103538.94;;;6.95;94.43
76321;BME280;65132;52.088;5.402;2023-02-11T09:03:22;103535.78;;;7.07;94.20
76321;BME280;65132;52.088;5.402;2023-02-11T09:05:49;103531.19;;;7.10;94.18
76321;BME280;65132;52.088;5.402;2023-02-11T09:08:16;103537.44;;;7.11;94.03
76321;BME280;65132;52.088;5.402;2023-02-11T09:10:43;103539.91;;;7.17;94.28
76321;BME280;65132;52.088;5.402;2023-02-11T09:13:09;103550.16;;;7.30;93.77
76321;BME280;65132;52.088;5.402;2023-02-11T09:15:36;103552.78;;;7.34;92.84
76321;BME280;65132;52.088;5.402;2023-02-11T09:18:03;103552.72;;;7.35;93.01
76321;BME280;65132;52.088;5.402;2023-02-11T09:20:30;103557.50;;;7.50;93.10
76321;BME280;65132;52.088;5.402;2023-02-11T09:22:57;103555.47;;;7.57;93.03
76321;BME280;65132;52.088;5.402;2023-02-11T09:25:24;103551.16;;;7.51;92.35
76321;BME280;65132;52.088;5.402;2023-02-11T09:27:50;103551.88;;;7.56;92.46
76321;BME280;65132;52.088;5.402;2023-02-11T09:30:17;103558.56;;;7.69;91.26
76321;BME280;65132;52.088;5.402;2023-02-11T09:32:43;103558.63;;;7.68;92.25
76321;BME280;65132;52.088;5.402;2023-02-11T09:35:10;103570.47;;;7.64;92.20
76321;BME280;65132;52.088;5.402;2023-02-11T09:37:36;103558.63;;;7.68;91.72
76321;BME280;65132;52.088;5.402;2023-02-11T09:40:03;103563.91;;;7.71;91.91
76321;BME280;65132;52.088;5.402;2023-02-11T09:42:41;103570.06;;;7.74;92.43
76321;BME280;65132;52.088;5.402;2023-02-11T09:45:21;103581.47;;;7.81;91.89
76321;BME280;65132;52.088;5.402;2023-02-11T09:48:01;103572.44;;;7.82;92.05
76321;BME280;65132;52.088;5.402;2023-02-11T09:50:34;103581.13;;;7.90;92.07
76321;BME280;65132;52.088;5.402;2023-02-11T09:55:37;103573.72;;;7.95;91.00
76321;BME280;65132;52.088;5.402;2023-02-11T09:58:13;103576.84;;;8.06;91.33
76321;BME280;65132;52.088;5.402;2023-02-11T10:00:46;103585.84;;;8.06;91.03
76321;BME280;65132;52.088;5.402;2023-02-11T10:14:14;103597.41;;;8.75;88.96
76321;BME280;65132;52.088;5.402;2023-02-11T10:16:51;103601.75;;;8.99;87.53
76321;BME280;65132;52.088;5.402;2023-02-11T10:22:21;103606.44;;;9.54;84.88
76321;BME280;65132;52.088;5.402;2023-02-11T10:24:56;103611.22;;;10.05;83.03
76321;BME280;65132;52.088;5.402;2023-02-11T10:27:30;103604.50;;;10.50;80.83
76321;BME280;65132;52.088;5.402;2023-02-11T10:30:05;103613.97;;;10.95;79.03
76321;BME280;65132;52.088;5.402;2023-02-11T10:32:43;103621.38;;;11.42;77.83
76321;BME280;65132;52.088;5.402;2023-02-11T10:35:18;103615.72;;;11.30;76.97
76321;BME280;65132;52.088;5.402;2023-02-11T10:37:45;103617.63;;;11.77;76.13
76321;BME280;65132;52.088;5.402;2023-02-11T10:40:17;103612.03;;;11.80;74.59
76321;BME280;65132;52.088;5.402;2023-02-11T10:42:53;103607.38;;;11.50;75.71
76321;BME280;65132;52.088;5.402;2023-02-11T10:45:26;103610.75;;;11.38;76.04
76321;BME280;65132;52.088;5.402;2023-02-11T10:47:53;103617.94;;;11.22;77.12
76321;BME280;65132;52.088;5.402;2023-02-11T10:50:30;103621.59;;;11.38;76.40
76321;BME280;65132;52.088;5.402;2023-02-11T10:53:16;103623.38;;;11.05;77.12
76321;BME280;65132;52.088;5.402;2023-02-11T10:56:25;103624.47;;;11.01;77.49
76321;BME280;65132;52.088;5.402;2023-02-11T11:01:47;103624.09;;;11.25;77.37
76321;BME280;65132;52.088;5.402;2023-02-11T11:04:38;103619.84;;;11.37;76.72
76321;BME280;65132;52.088;5.402;2023-02-11T11:07:28;103624.53;;;11.67;76.22
76321;BME280;65132;52.088;5.402;2023-02-11T11:12:54;103636.94;;;12.04;74.79
76321;BME280;65132;52.088;5.402;2023-02-11T11:15:24;103636.97;;;12.51;72.58
76321;BME280;65132;52.088;5.402;2023-02-11T11:18:10;103646.25;;;12.47;71.93
76321;BME280;65132;52.088;5.402;2023-02-11T11:20:57;103645.53;;;12.28;72.24
76321;BME280;65132;52.088;5.402;2023-02-11T11:23:25;103643.88;;;12.10;73.22
76321;BME280;65132;52.088;5.402;2023-02-11T11:26:09;103649.06;;;12.30;72.42
76321;BME280;65132;52.088;5.402;2023-02-11T11:28:42;103657.81;;;12.50;71.01
76321;BME280;65132;52.088;5.402;2023-02-11T11:31:43;103643.16;;;13.29;68.06
76321;BME280;65132;52.088;5.402;2023-02-11T11:34:38;103651.56;;;13.24;69.23
76321;BME280;65132;52.088;5.402;2023-02-11T11:37:31;103660.09;;;12.58;70.41
76321;BME280;65132;52.088;5.402;2023-02-11T11:40:01;103654.22;;;12.50;71.57
76321;BME280;65132;52.088;5.402;2023-02-11T11:42:33;103659.81;;;12.31;71.88
76321;BME280;65132;52.088;5.402;2023-02-11T11:45:03;103658.25;;;12.12;72.86
76321;BME280;65132;52.088;5.402;2023-02-11T11:55:35;103634.75;;;12.73;69.83
76321;BME280;65132;52.088;5.402;2023-02-11T11:58:04;103635.56;;;12.75;70.27
76321;BME280;65132;52.088;5.402;2023-02-11T12:06:38;103627.72;;;12.84;69.69
76321;BME280;65132;52.088;5.402;2023-02-11T12:09:11;103629.84;;;12.79;69.96
76321;BME280;65132;52.088;5.402;2023-02-11T12:17:40;103615.75;;;13.02;68.40
76321;BME280;65132;52.088;5.402;2023-02-11T12:22:53;103624.28;;;12.36;70.70
76321;BME280;65132;52.088;5.402;2023-02-11T12:25:44;103630.78;;;11.85;72.92
76321;BME280;65132;52.088;5.402;2023-02-11T12:31:23;103620.22;;;11.96;73.44
76321;BME280;65132;52.088;5.402;2023-02-11T12:34:35;103625.94;;;12.07;73.31
76321;BME280;65132;52.088;5.402;2023-02-11T12:37:33;103620.31;;;11.94;73.25
76321;BME280;65132;52.088;5.402;2023-02-11T12:40:25;103630.97;;;11.97;73.23
76321;BME280;65132;52.088;5.402;2023-02-11T12:43:05;103626.97;;;12.04;73.19
76321;BME280;65132;52.088;5.402;2023-02-11T12:59:04;103624.66;;;11.97;73.04
76321;BME280;65132;52.088;5.402;2023-02-11T13:01:38;103618.88;;;11.87;72.40
76321;BME280;65132;52.088;5.402;2023-02-11T13:04:20;103611.41;;;11.75;71.98
76321;BME280;65132;52.088;5.402;2023-02-11T13:06:58;103623.97;;;11.93;72.72
76321;BME280;65132;52.088;5.402;2023-02-11T13:09:26;103615.56;;;12.45;70.90
76321;BME280;65132;52.088;5.402;2023-02-11T13:11:57;103612.28;;;12.85;69.72
76321;BME280;65132;52.088;5.402;2023-02-11T13:14:33;103607.34;;;13.07;67.78
76321;BME280;65132;52.088;5.402;2023-02-11T13:17:12;103609.13;;;13.22;66.88
76321;BME280;65132;52.088;5.402;2023-02-11T13:19:51;103617.25;;;13.52;65.92
76321;BME280;65132;52.088;5.402;2023-02-11T13:22:27;103613.94;;;13.47;65.54
76321;BME280;65132;52.088;5.402;2023-02-11T13:25:30;103614.63;;;13.64;64.62
76321;BME280;65132;52.088;5.402;2023-02-11T13:28:04;103604.09;;;13.30;66.92
76321;BME280;65132;52.088;5.402;2023-02-11T13:30:36;103607.88;;;13.42;66.06
76321;BME280;65132;52.088;5.402;2023-02-11T13:33:15;103606.50;;;13.20;66.84
76321;BME280;65132;52.088;5.402;2023-02-11T13:38:31;103603.84;;;13.05;66.63
76321;BME280;65132;52.088;5.402;2023-02-11T13:43:42;103596.72;;;13.32;65.67
76321;BME280;65132;52.088;5.402;2023-02-11T13:46:13;103595.72;;;13.19;66.61
76321;BME280;65132;52.088;5.402;2023-02-11T13:48:49;103599.00;;;12.94;67.23
76321;BME280;65132;52.088;5.402;2023-02-11T13:51:18;103598.31;;;13.06;68.10
76321;BME280;65132;52.088;5.402;2023-02-11T13:53:59;103613.94;;;13.03;67.03
76321;BME280;65132;52.088;5.402;2023-02-11T13:59:06;103598.31;;;13.06;66.60
76321;BME280;65132;52.088;5.402;2023-02-11T14:04:23;103611.38;;;13.00;66.93
76321;BME280;65132;52.088;5.402;2023-02-11T14:07:24;103605.47;;;13.37;65.66
76321;BME280;65132;52.088;5.402;2023-02-11T14:09:51;103615.88;;;13.45;65.94
76321;BME280;65132;52.088;5.402;2023-02-11T14:12:32;103616.00;;;13.71;64.50
76321;BME280;65132;52.088;5.402;2023-02-11T14:17:33;103602.59;;;13.82;65.10
76321;BME280;65132;52.088;5.402;2023-02-11T14:20:02;103614.69;;;14.19;64.24
76321;BME280;65132;52.088;5.402;2023-02-11T14:25:15;103608.59;;;13.73;65.41
76321;BME280;65132;52.088;5.402;2023-02-11T14:30:45;103616.81;;;13.00;66.78
76321;BME280;65132;52.088;5.402;2023-02-11T14:36:34;103615.53;;;12.46;68.51
76321;BME280;65132;52.088;5.402;2023-02-11T14:41:31;103627.78;;;12.22;69.88
76321;BME280;65132;52.088;5.402;2023-02-11T14:44:06;103619.00;;;12.48;68.65
76321;BME280;65132;52.088;5.402;2023-02-11T14:46:37;103629.78;;;12.03;70.49
76321;BME280;65132;52.088;5.402;2023-02-11T14:49:18;103625.28;;;12.02;70.89
76321;BME280;65132;52.088;5.402;2023-02-11T14:51:47;103629.31;;;12.11;70.67
76321;BME280;65132;52.088;5.402;2023-02-11T14:54:15;103632.75;;;12.30;70.61
76321;BME280;65132;52.088;5.402;2023-02-11T14:56:43;103626.81;;;12.23;70.16
76321;BME280;65132;52.088;5.402;2023-02-11T14:59:18;103633.00;;;12.10;70.32
76321;BME280;65132;52.088;5.402;2023-02-11T15:01:49;103630.47;;;12.07;70.44
76321;BME280;65132;52.088;5.402;2023-02-11T15:04:32;103632.19;;;11.92;71.23